Terminal Aerodrome Forecast
Issued by NWS Dodge City, KS

Home | Current Version | Previous Version | Graphics & Text | Print | Product List | Glossary Off
Versions: 1 2 3 4 5 6 7 8 9 10 11 12 13 14

000
FTUS43 KDDC 221500 AAB
TAFDDC
TAF AMD
KDDC 221500Z 2215/2312 20012KT P6SM SCT200
     FM221600 20013G20KT P6SM FEW250
     FM222300 23006KT P6SM FEW250=

USA.gov is the U.S. government's official web portal to all federal, state and local government web resources and services.